Time;durP1;ratioP1;P1;durP2;ratioP2;P2;SDS_P1;SDS_P2;PMS_P1;PMS_P2;Temp;Humidity;BMP_temperature;BMP_pressure;BME280_temperature;BME280_humidity;BME280_pressure;Samples;Min_cycle;Max_cycle;Signal;HPM_P1;HPM_P2
2021/06/10 00:02:07;;;;;;;7.82;4.22;;;;;;;15.13;46.74;102080.97;5057298;28;20885;-73
2021/06/10 00:04:32;;;;;;;7.35;4.80;;;;;;;14.99;47.47;102084.13;5067868;28;20038;-72
2021/06/10 00:06:58;;;;;;;5.97;4.72;;;;;;;14.93;48.08;102089.66;5065831;28;20048;-72
2021/06/10 00:09:23;;;;;;;7.75;5.50;;;;;;;14.91;47.42;102083.59;5070212;28;20024;-71
2021/06/10 00:11:49;;;;;;;8.77;6.03;;;;;;;14.82;47.69;102081.31;5068644;28;20108;-72
2021/06/10 00:14:14;;;;;;;7.28;4.70;;;;;;;14.73;48.38;102083.38;5052867;28;20456;-72
2021/06/10 00:16:40;;;;;;;7.43;5.10;;;;;;;14.80;47.81;102085.78;5066061;28;20444;-72
2021/06/10 00:19:07;;;;;;;6.43;5.18;;;;;;;14.75;48.12;102078.91;5069871;28;20033;-72
2021/06/10 00:21:33;;;;;;;10.45;7.22;;;;;;;14.66;48.30;102079.28;5067382;28;20020;-72
2021/06/10 00:23:58;;;;;;;11.77;6.10;;;;;;;14.55;48.09;102084.94;5064493;28;20033;-72
2021/06/10 00:26:24;;;;;;;6.97;6.03;;;;;;;14.53;48.59;102078.03;5059611;28;20098;-72
2021/06/10 00:28:50;;;;;;;7.18;6.38;;;;;;;14.57;48.37;102074.38;5064185;28;20071;-71
2021/06/10 00:31:15;;;;;;;9.52;5.82;;;;;;;14.62;47.99;102076.81;5067144;28;20059;-72
2021/06/10 00:33:41;;;;;;;8.75;6.10;;;;;;;14.62;48.19;102071.56;5068440;28;20489;-71
2021/06/10 00:36:07;;;;;;;9.52;7.13;;;;;;;14.51;48.41;102080.69;5053801;28;20054;-71
2021/06/10 00:38:32;;;;;;;9.73;7.70;;;;;;;14.32;48.57;102070.00;5064442;28;20033;-72
2021/06/10 00:40:58;;;;;;;11.85;8.55;;;;;;;14.20;48.80;102062.53;5069457;28;20260;-71
2021/06/10 00:43:23;;;;;;;11.85;8.15;;;;;;;14.07;49.29;102063.88;5065915;28;20112;-71
2021/06/10 00:45:49;;;;;;;9.73;7.50;;;;;;;14.00;49.72;102062.41;5067852;28;20044;-72
2021/06/10 00:48:14;;;;;;;9.50;7.53;;;;;;;14.05;49.29;102063.09;5056306;28;20123;-71
2021/06/10 00:50:43;;;;;;;11.98;9.18;;;;;;;14.05;49.36;102061.31;5071005;28;20058;-72
2021/06/10 00:53:20;;;;;;;10.80;7.53;;;;;;;14.06;49.13;102065.66;5065707;28;20051;-72
2021/06/10 00:55:50;;;;;;;11.07;7.95;;;;;;;14.03;49.09;102064.91;5068549;28;20181;-72
2021/06/10 00:58:16;;;;;;;9.63;6.38;;;;;;;14.07;49.24;102064.75;5082954;28;20147;-72
2021/06/10 01:00:42;;;;;;;11.27;6.75;;;;;;;14.09;49.12;102067.31;5068659;28;20154;-72
2021/06/10 01:03:08;;;;;;;9.00;7.25;;;;;;;14.08;48.91;102060.38;5081840;28;20033;-72
2021/06/10 01:05:34;;;;;;;9.68;7.85;;;;;;;14.17;48.52;102057.41;5066790;28;20033;-72
2021/06/10 01:08:06;;;;;;;9.35;7.70;;;;;;;14.12;48.63;102057.56;5067536;28;20043;-71
2021/06/10 01:10:38;;;;;;;11.57;8.23;;;;;;;14.07;48.45;102058.63;5067879;28;20032;-72
2021/06/10 01:13:23;;;;;;;;;;;;;;;14.17;48.05;102049.50;5064918;28;20086;-72
2021/06/10 01:15:54;;;;;;;10.68;8.32;;;;;;;14.11;48.36;102042.69;5037599;28;19944;-72
2021/06/10 01:18:21;;;;;;;9.07;7.00;;;;;;;14.28;48.24;102044.72;5066308;28;20020;-72
2021/06/10 01:20:48;;;;;;;8.48;7.43;;;;;;;14.23;48.45;102038.78;5068517;28;20029;-72
2021/06/10 01:23:29;;;;;;;9.93;7.50;;;;;;;14.22;48.16;102050.19;5066749;28;20060;-72
2021/06/10 01:26:03;;;;;;;10.38;8.23;;;;;;;14.07;48.33;102042.88;5068780;28;20058;-72
2021/06/10 01:28:35;;;;;;;11.48;8.27;;;;;;;13.94;49.08;102043.31;5064688;28;20085;-72
2021/06/10 01:31:09;;;;;;;9.68;7.72;;;;;;;13.92;48.89;102045.13;5067604;28;20029;-72
2021/06/10 01:33:42;;;;;;;8.80;7.45;;;;;;;13.83;49.09;102040.22;5061988;28;20425;-72
2021/06/10 01:36:14;;;;;;;8.90;6.55;;;;;;;13.94;48.83;102042.44;5066110;28;20229;-72
2021/06/10 01:38:44;;;;;;;7.82;7.07;;;;;;;13.93;48.95;102046.00;5081968;28;20129;-72
2021/06/10 01:41:11;;;;;;;9.05;6.82;;;;;;;13.99;48.47;102045.78;5063703;28;20041;-72
2021/06/10 01:43:39;;;;;;;8.70;6.50;;;;;;;13.91;48.84;102053.91;5064046;28;20040;-72
2021/06/10 01:46:06;;;;;;;10.02;7.20;;;;;;;13.97;48.98;102049.38;5067951;28;20068;-72
2021/06/10 01:48:33;;;;;;;7.85;5.88;;;;;;;13.99;48.92;102050.19;5046856;28;20401;-71
2021/06/10 01:51:01;;;;;;;6.80;5.68;;;;;;;13.88;49.34;102034.78;5064194;28;20076;-72
2021/06/10 01:53:28;;;;;;;6.88;5.93;;;;;;;13.83;49.47;102029.69;5083219;28;20040;-72
2021/06/10 01:55:58;;;;;;;10.70;6.72;;;;;;;13.63;49.92;102027.78;5064421;28;20112;-71
2021/06/10 01:58:24;;;;;;;8.48;6.53;;;;;;;13.49;50.38;102025.56;5071053;28;20064;-72
2021/06/10 02:00:51;;;;;;;9.30;5.82;;;;;;;13.52;50.68;102028.09;5067423;28;20034;-72
2021/06/10 02:03:18;;;;;;;8.93;6.47;;;;;;;13.52;50.40;102028.09;5068140;28;20029;-72
2021/06/10 02:05:44;;;;;;;7.38;5.78;;;;;;;13.54;50.59;102022.81;5061006;28;20025;-72
2021/06/10 02:08:12;;;;;;;6.82;5.75;;;;;;;13.51;50.49;102029.00;5082659;28;20056;-72
2021/06/10 02:10:39;;;;;;;5.47;4.88;;;;;;;13.47;50.29;102027.41;5061360;28;20024;-72
2021/06/10 02:13:06;;;;;;;8.00;6.35;;;;;;;13.55;50.34;102024.50;5083659;28;20032;-72
2021/06/10 02:15:32;;;;;;;10.57;6.53;;;;;;;13.40;50.59;102018.00;5066169;28;20029;-72
2021/06/10 02:17:58;;;;;;;6.00;5.40;;;;;;;13.38;50.45;102008.47;5066207;28;20033;-72
2021/06/10 02:20:24;;;;;;;7.93;6.78;;;;;;;13.23;50.72;102012.47;5066890;28;20092;-72
2021/06/10 02:22:50;;;;;;;9.27;7.28;;;;;;;13.09;51.45;102005.03;5050843;28;20040;-71
2021/06/10 02:25:16;;;;;;;9.50;6.68;;;;;;;12.95;51.44;102013.34;5065343;28;20063;-71
2021/06/10 02:27:42;;;;;;;11.48;6.80;;;;;;;12.92;51.92;102002.97;5047957;28;20044;-72
2021/06/10 02:30:11;;;;;;;10.57;6.63;;;;;;;12.80;52.17;102003.34;5066311;28;20051;-73
2021/06/10 02:32:37;;;;;;;7.80;6.78;;;;;;;12.79;52.23;101996.41;5065394;28;20540;-72
2021/06/10 02:35:09;;;;;;;8.80;6.80;;;;;;;12.93;51.70;102001.19;5064033;28;20040;-72
2021/06/10 02:37:38;;;;;;;8.75;6.60;;;;;;;12.96;52.03;102004.59;5063995;28;20059;-72
2021/06/10 02:40:16;;;;;;;12.07;7.82;;;;;;;12.87;51.85;101994.38;5067625;28;20032;-73
2021/06/10 02:42:44;;;;;;;7.75;6.85;;;;;;;12.90;52.09;101996.91;5057317;28;20119;-73
2021/06/10 02:45:10;;;;;;;10.20;8.02;;;;;;;12.89;51.95;101998.69;5046062;28;20512;-72
2021/06/10 02:47:38;;;;;;;13.60;7.70;;;;;;;12.82;52.06;101997.13;5066762;28;20017;-72
2021/06/10 02:50:09;;;;;;;10.10;7.65;;;;;;;12.80;52.15;101987.59;5067978;28;20024;-72
2021/06/10 02:52:36;;;;;;;10.98;8.13;;;;;;;12.72;52.41;101989.63;5066072;28;20028;-72
2021/06/10 02:55:03;;;;;;;11.35;7.10;;;;;;;12.72;51.93;101987.00;5065550;28;20029;-73
2021/06/10 02:57:29;;;;;;;9.63;7.28;;;;;;;12.60;51.94;101982.94;5063406;28;20037;-72
2021/06/10 02:59:55;;;;;;;8.48;7.20;;;;;;;12.50;52.52;101985.00;5052162;28;20033;-72
2021/06/10 03:02:21;;;;;;;6.93;6.22;;;;;;;12.54;52.54;101984.00;5062659;28;20423;-73
2021/06/10 03:04:47;;;;;;;9.52;7.15;;;;;;;12.45;52.64;101987.78;5066966;28;20092;-72
2021/06/10 03:07:15;;;;;;;9.57;7.43;;;;;;;12.48;52.73;101986.81;5062401;28;20024;-72
2021/06/10 03:09:43;;;;;;;7.47;6.57;;;;;;;12.51;52.96;101984.09;5060446;28;20063;-72
2021/06/10 03:12:11;;;;;;;7.18;6.47;;;;;;;12.61;52.93;101982.06;5063103;28;20032;-72
2021/06/10 03:14:38;;;;;;;5.97;5.07;;;;;;;12.67;52.66;101985.34;5065427;28;20046;-72
2021/06/10 03:17:04;;;;;;;7.50;5.43;;;;;;;12.76;52.13;101981.63;5061252;28;20598;-72
2021/06/10 03:19:30;;;;;;;6.20;5.60;;;;;;;12.81;51.88;101984.09;5062190;28;20025;-72
2021/06/10 03:21:56;;;;;;;9.05;6.75;;;;;;;12.83;52.26;101984.91;5050375;28;20032;-72
2021/06/10 03:24:22;;;;;;;7.93;6.88;;;;;;;12.86;51.73;101983.03;5066634;28;20047;-72
2021/06/10 03:26:48;;;;;;;7.97;6.43;;;;;;;12.91;51.74;101982.88;5046210;28;20107;-72
2021/06/10 03:29:14;;;;;;;8.05;6.63;;;;;;;12.96;51.64;101994.09;5061413;28;20025;-72
2021/06/10 03:31:41;;;;;;;11.35;5.93;;;;;;;12.97;51.32;101985.31;5061509;28;20086;-72
2021/06/10 03:34:07;;;;;;;5.32;4.82;;;;;;;12.97;51.66;101980.06;5066656;28;20036;-72
2021/06/10 03:36:32;;;;;;;6.53;5.80;;;;;;;13.01;51.42;101979.06;5048557;28;20059;-73
2021/06/10 03:38:58;;;;;;;9.38;6.57;;;;;;;12.96;50.85;101973.09;5047802;28;20025;-74
2021/06/10 03:41:25;;;;;;;9.90;7.90;;;;;;;12.79;51.61;101975.41;5066397;28;20138;-72
2021/06/10 03:43:52;;;;;;;10.93;6.95;;;;;;;12.70;52.09;101977.41;5060808;28;20025;-72
2021/06/10 03:46:18;;;;;;;12.27;8.43;;;;;;;12.76;52.35;101972.88;5061642;28;20071;-72
2021/06/10 03:48:43;;;;;;;8.38;7.05;;;;;;;12.87;52.04;101978.63;5062429;28;20570;-72
2021/06/10 03:51:11;;;;;;;11.18;8.75;;;;;;;12.93;52.03;101972.34;5063038;28;20123;-72
2021/06/10 03:53:37;;;;;;;11.70;8.48;;;;;;;12.99;51.77;101970.38;5064650;28;20628;-72
2021/06/10 03:56:02;;;;;;;12.27;8.82;;;;;;;13.08;51.75;101979.72;5064037;28;20066;-72
2021/06/10 03:58:28;;;;;;;9.73;7.85;;;;;;;13.24;51.44;101977.44;5061184;28;20116;-72
2021/06/10 04:00:53;;;;;;;12.25;9.68;;;;;;;13.17;50.96;101982.03;5064622;28;20037;-72
2021/06/10 04:03:19;;;;;;;18.92;12.68;;;;;;;13.07;51.25;101985.84;5058992;28;20032;-72
2021/06/10 04:05:44;;;;;;;16.85;11.02;;;;;;;13.25;51.41;101979.13;5063464;28;20389;-72
2021/06/10 04:08:10;;;;;;;21.02;13.68;;;;;;;13.41;50.76;101979.50;5065323;28;20394;-72
2021/06/10 04:10:35;;;;;;;20.38;13.13;;;;;;;13.36;50.50;101976.16;5064963;28;20028;-72
2021/06/10 04:13:01;;;;;;;19.67;13.00;;;;;;;13.33;50.76;101974.47;5066882;28;20032;-72
2021/06/10 04:15:27;;;;;;;18.80;12.73;;;;;;;13.42;50.54;101982.03;5064477;28;20033;-72
2021/06/10 04:17:53;;;;;;;12.32;9.88;;;;;;;13.56;50.43;101978.94;5061494;28;20056;-72
2021/06/10 04:20:19;;;;;;;15.25;11.35;;;;;;;13.57;50.35;101980.69;5064919;28;20037;-72
2021/06/10 04:22:45;;;;;;;17.38;12.02;;;;;;;13.44;50.13;101972.34;5067192;28;20037;-72
2021/06/10 04:25:11;;;;;;;17.65;13.30;;;;;;;13.35;50.25;101969.19;5064496;28;20040;-72
2021/06/10 04:27:36;;;;;;;19.77;14.25;;;;;;;13.29;50.53;101967.63;5046699;28;20066;-72
2021/06/10 04:30:05;;;;;;;22.25;14.43;;;;;;;13.28;50.36;101971.16;5066416;28;20025;-72
2021/06/10 04:32:30;;;;;;;23.05;13.40;;;;;;;13.24;50.79;101964.31;5065839;28;20039;-72
2021/06/10 04:34:56;;;;;;;22.40;13.68;;;;;;;13.31;50.59;101963.19;5064237;28;20040;-72
2021/06/10 04:37:23;;;;;;;19.23;13.88;;;;;;;13.37;50.65;101959.50;5070081;28;20032;-72
2021/06/10 04:39:48;;;;;;;24.95;15.00;;;;;;;13.43;50.74;101954.88;5066993;28;20025;-72
2021/06/10 04:42:14;;;;;;;22.23;14.27;;;;;;;13.57;50.38;101957.06;5084445;28;20532;-72
2021/06/10 04:44:39;;;;;;;21.25;13.32;;;;;;;13.60;50.15;101966.59;5049843;28;20394;-72
2021/06/10 04:47:05;;;;;;;22.40;14.75;;;;;;;13.82;50.07;101958.81;5065965;28;20047;-72
2021/06/10 04:49:34;;;;;;;24.08;13.93;;;;;;;13.96;49.37;101960.91;5052974;28;20027;-72
2021/06/10 04:52:00;;;;;;;24.45;14.93;;;;;;;14.18;48.44;101960.97;5047847;28;20378;-72
2021/06/10 04:54:26;;;;;;;19.88;13.98;;;;;;;14.32;48.62;101956.91;5060791;28;20098;-72
2021/06/10 04:56:51;;;;;;;22.98;14.63;;;;;;;14.62;48.17;101954.00;5067630;28;20040;-72
2021/06/10 04:59:16;;;;;;;25.00;14.93;;;;;;;14.90;47.38;101955.50;5065311;28;20049;-72
2021/06/10 05:01:42;;;;;;;23.88;14.82;;;;;;;15.07;46.55;101947.78;5069777;28;20032;-72
2021/06/10 05:04:07;;;;;;;26.55;14.60;;;;;;;15.74;45.94;101954.56;5068178;28;20040;-72
2021/06/10 05:06:34;;;;;;;26.38;14.77;;;;;;;17.42;42.08;101954.44;5067192;28;20111;-72
2021/06/10 05:09:00;;;;;;;18.27;13.52;;;;;;;19.02;37.94;101961.59;5067842;28;20371;-72
2021/06/10 05:11:25;;;;;;;21.85;14.90;;;;;;;20.05;35.71;101953.53;5065033;28;20634;-72
2021/06/10 05:13:51;;;;;;;20.77;13.48;;;;;;;21.06;33.51;101961.19;5067107;28;20036;-72
2021/06/10 05:16:16;;;;;;;19.10;13.13;;;;;;;21.90;32.61;101958.00;5065694;28;20542;-72
2021/06/10 05:18:42;;;;;;;19.45;12.65;;;;;;;22.48;31.96;101957.44;5044983;28;20478;-72
2021/06/10 05:21:08;;;;;;;15.23;11.27;;;;;;;23.08;30.37;101961.78;5066992;28;20173;-72
2021/06/10 05:23:33;;;;;;;19.50;12.38;;;;;;;23.08;29.99;101960.97;5065794;28;20032;-72
2021/06/10 05:25:59;;;;;;;15.90;11.98;;;;;;;23.57;29.09;101957.19;5065425;28;20043;-72
2021/06/10 05:28:25;;;;;;;17.15;12.50;;;;;;;23.29;30.47;101961.97;5062948;28;20737;-72
2021/06/10 05:30:51;;;;;;;17.63;12.65;;;;;;;22.58;30.92;101964.63;5068366;28;20531;-72
2021/06/10 05:33:16;;;;;;;18.88;13.77;;;;;;;23.19;30.97;101960.97;5063346;28;20040;-72
2021/06/10 05:35:42;;;;;;;13.40;10.88;;;;;;;24.61;28.75;101963.94;5065441;28;20047;-72
2021/06/10 05:38:07;;;;;;;12.10;9.82;;;;;;;25.61;27.23;101959.00;5064819;28;20123;-72
2021/06/10 05:40:33;;;;;;;16.75;10.98;;;;;;;26.09;27.78;101957.50;5066164;28;20040;-72
2021/06/10 05:42:59;;;;;;;15.55;11.20;;;;;;;27.18;25.83;101960.88;5062375;28;20039;-72
2021/06/10 05:45:24;;;;;;;16.40;11.18;;;;;;;28.38;24.58;101956.53;5051714;28;20035;-72
2021/06/10 05:47:50;;;;;;;17.02;10.82;;;;;;;29.18;22.96;101961.91;5065658;28;20064;-72
2021/06/10 05:50:15;;;;;;;15.20;9.85;;;;;;;28.87;23.18;101962.34;5057830;28;20031;-72
2021/06/10 05:52:42;;;;;;;16.70;11.32;;;;;;;29.47;22.29;101964.25;5047577;28;20467;-72
2021/06/10 05:55:08;;;;;;;16.10;8.75;;;;;;;29.97;22.58;101974.22;5050512;28;20036;-72
2021/06/10 05:57:34;;;;;;;13.90;10.63;;;;;;;30.24;22.13;101965.06;5052319;28;20548;-72
2021/06/10 05:59:59;;;;;;;15.30;11.63;;;;;;;29.93;22.43;101973.75;5062456;28;20063;-72
2021/06/10 06:02:25;;;;;;;14.85;10.95;;;;;;;30.22;22.27;101982.41;5067331;28;20024;-72
2021/06/10 06:04:51;;;;;;;11.98;9.82;;;;;;;30.43;22.36;101974.69;5078700;28;20029;-72
2021/06/10 06:07:17;;;;;;;13.70;11.73;;;;;;;30.22;22.63;101975.19;5071151;28;20040;-72
2021/06/10 06:09:43;;;;;;;10.68;9.32;;;;;;;30.24;22.94;101975.84;5065979;28;20550;-72
2021/06/10 06:12:11;;;;;;;14.18;11.63;;;;;;;30.20;23.05;101982.59;5067862;28;20092;-72
2021/06/10 06:14:38;;;;;;;18.63;14.25;;;;;;;29.11;23.13;101989.47;5068548;28;20044;-73
2021/06/10 06:17:06;;;;;;;17.13;13.00;;;;;;;30.62;21.63;101989.72;5067020;28;20744;-72
2021/06/10 06:19:33;;;;;;;19.73;13.70;;;;;;;30.47;22.64;101994.94;5066772;28;20025;-72
2021/06/10 06:21:58;;;;;;;15.98;12.40;;;;;;;31.82;20.94;101998.81;5061985;28;20137;-73
2021/06/10 06:24:24;;;;;;;15.35;13.02;;;;;;;32.84;19.16;102004.13;5064672;28;20051;-72
2021/06/10 06:26:49;;;;;;;14.93;11.77;;;;;;;32.67;19.24;102005.25;5066815;28;20032;-74
2021/06/10 06:29:15;;;;;;;12.20;10.38;;;;;;;32.38;20.11;102005.97;5055958;28;20159;-73
2021/06/10 06:31:40;;;;;;;17.77;12.98;;;;;;;33.10;18.96;102008.28;5066599;28;20036;-73
2021/06/10 06:34:06;;;;;;;18.48;12.77;;;;;;;33.05;19.54;102016.94;5064228;28;20524;-73
2021/06/10 06:36:32;;;;;;;18.55;13.57;;;;;;;32.64;19.00;102011.03;5064991;28;20073;-73
2021/06/10 06:38:57;;;;;;;13.95;12.55;;;;;;;31.92;20.48;102009.41;5050197;28;20052;-73
2021/06/10 06:41:24;;;;;;;15.43;13.13;;;;;;;29.72;22.09;102003.78;5068777;28;20031;-74
2021/06/10 06:43:50;;;;;;;18.50;13.73;;;;;;;29.32;22.40;102007.09;5063758;28;20082;-73
2021/06/10 06:46:16;;;;;;;15.80;13.23;;;;;;;29.14;23.23;102007.13;5064596;28;20056;-73
2021/06/10 06:48:41;;;;;;;18.13;13.77;;;;;;;28.85;23.49;102010.09;5063927;28;20406;-73
2021/06/10 06:51:08;;;;;;;19.00;13.80;;;;;;;28.33;24.43;102010.75;5066843;28;20066;-73
2021/06/10 06:53:33;;;;;;;18.30;14.65;;;;;;;26.84;25.79;102003.41;5064428;28;20119;-72
2021/06/10 06:56:03;;;;;;;16.45;13.82;;;;;;;27.12;25.77;102004.41;5065303;28;20226;-72
2021/06/10 06:58:29;;;;;;;16.27;12.05;;;;;;;27.68;25.49;102010.78;5064139;28;20109;-72
2021/06/10 07:00:55;;;;;;;19.13;13.95;;;;;;;28.09;25.75;102016.66;5067151;28;20040;-72
2021/06/10 07:03:21;;;;;;;17.60;13.88;;;;;;;28.75;24.04;102024.47;5063615;28;20025;-72
2021/06/10 07:05:47;;;;;;;17.55;13.88;;;;;;;27.03;25.18;102024.88;5065483;28;20039;-72
2021/06/10 07:08:13;;;;;;;20.10;15.23;;;;;;;25.78;27.32;102024.47;5060496;28;20024;-72
2021/06/10 07:10:40;;;;;;;20.17;12.77;;;;;;;26.84;26.35;102024.88;5045571;28;20055;-72
2021/06/10 07:13:06;;;;;;;16.35;11.75;;;;;;;26.97;25.29;102028.13;5064646;28;20032;-72
2021/06/10 07:15:32;;;;;;;13.23;11.23;;;;;;;27.49;24.41;102025.09;5066064;28;20120;-72
2021/06/10 07:17:57;;;;;;;17.17;12.77;;;;;;;26.75;24.83;102025.72;5063947;28;20100;-72
2021/06/10 07:20:23;;;;;;;15.20;11.90;;;;;;;27.42;24.64;102022.13;5078186;28;20685;-72
2021/06/10 07:22:49;;;;;;;18.15;12.30;;;;;;;27.50;25.61;102032.16;5063145;28;20036;-72
2021/06/10 07:25:14;;;;;;;17.95;14.20;;;;;;;27.55;24.13;102019.13;5063397;28;20032;-72
2021/06/10 07:27:41;;;;;;;22.52;14.88;;;;;;;27.62;24.82;102022.13;5075881;22;20199;-67
2021/06/10 07:30:07;;;;;;;18.48;12.60;;;;;;;28.63;23.69;102033.75;5050594;28;20108;-65
2021/06/10 07:32:34;;;;;;;16.83;10.48;;;;;;;29.27;22.32;102030.94;5034226;28;20145;-68
2021/06/10 07:34:59;;;;;;;14.75;11.05;;;;;;;29.57;20.63;102026.91;5048697;28;20071;-65
2021/06/10 07:37:25;;;;;;;13.60;9.98;;;;;;;29.09;20.87;102031.81;5054156;28;20115;-66
2021/06/10 07:39:51;;;;;;;14.40;9.45;;;;;;;28.96;21.23;102040.28;5050797;28;20040;-67
2021/06/10 07:42:17;;;;;;;13.13;10.43;;;;;;;28.61;22.59;102049.16;5050743;28;20044;-67
2021/06/10 07:44:42;;;;;;;16.02;10.32;;;;;;;29.13;21.79;102049.38;5049885;28;20086;-66
2021/06/10 07:47:08;;;;;;;14.13;11.32;;;;;;;28.92;21.42;102046.13;5052672;28;20064;-66
2021/06/10 07:49:34;;;;;;;14.30;10.27;;;;;;;29.81;21.51;102044.25;5029672;28;20207;-66
2021/06/10 07:52:00;;;;;;;13.75;10.35;;;;;;;30.28;20.93;102044.59;5049589;28;20033;-66
2021/06/10 07:54:26;;;;;;;16.33;11.98;;;;;;;31.07;20.34;102049.63;5019228;28;20263;-66
2021/06/10 07:56:53;;;;;;;17.50;10.77;;;;;;;32.15;18.68;102041.09;5039932;28;20036;-67
2021/06/10 07:59:24;;;;;;;14.40;10.45;;;;;;;32.50;17.77;102044.28;5033359;28;20079;-65
2021/06/10 08:01:50;;;;;;;10.25;7.78;;;;;;;31.39;18.01;102041.50;5033358;28;20440;-67
2021/06/10 08:04:16;;;;;;;12.77;9.88;;;;;;;31.88;18.56;102045.94;5051517;28;20037;-66
2021/06/10 08:06:41;;;;;;;10.95;8.52;;;;;;;31.15;19.67;102045.06;5054269;28;20040;-66
2021/06/10 08:09:07;;;;;;;8.52;6.95;;;;;;;31.49;17.93;102045.88;5056695;28;20045;-68
2021/06/10 08:11:34;;;;;;;8.93;7.97;;;;;;;31.81;17.09;102047.66;5052904;28;20032;-66
2021/06/10 08:13:59;;;;;;;10.00;7.97;;;;;;;31.71;17.37;102047.00;5054517;28;20040;-67
2021/06/10 08:16:25;;;;;;;9.80;8.27;;;;;;;32.40;17.57;102039.94;5054451;28;20044;-66
2021/06/10 08:18:50;;;;;;;11.75;9.25;;;;;;;32.29;18.37;102039.50;5045001;28;20118;-66
2021/06/10 08:21:16;;;;;;;11.10;7.53;;;;;;;32.99;16.76;102036.66;5052727;28;20033;-67
2021/06/10 08:23:41;;;;;;;9.77;7.93;;;;;;;32.40;16.64;102034.53;5051623;28;20029;-67
2021/06/10 08:26:08;;;;;;;7.25;5.72;;;;;;;30.64;17.73;102036.28;5052717;28;20317;-67
2021/06/10 08:28:34;;;;;;;7.78;6.65;;;;;;;32.38;16.79;102030.31;5051218;28;20036;-67
2021/06/10 08:31:00;;;;;;;7.88;6.55;;;;;;;32.53;16.43;102027.69;5056776;28;20032;-67
2021/06/10 08:33:25;;;;;;;4.60;4.20;;;;;;;33.90;15.48;102032.97;5053357;28;20031;-65
2021/06/10 08:35:52;;;;;;;13.05;7.05;;;;;;;33.39;16.14;102034.56;5056576;28;20028;-65
2021/06/10 08:38:18;;;;;;;10.70;9.40;;;;;;;32.67;16.59;102035.00;5056344;28;20045;-67
2021/06/10 08:40:44;;;;;;;9.32;8.38;;;;;;;32.54;16.89;102032.06;5053367;28;20021;-67
2021/06/10 08:43:10;;;;;;;9.10;7.82;;;;;;;33.05;17.37;102035.06;5052132;28;20056;-66
2021/06/10 08:45:41;;;;;;;11.27;8.38;;;;;;;33.53;16.27;102035.59;5053884;28;20385;-67
2021/06/10 08:48:07;;;;;;;8.93;7.13;;;;;;;33.29;16.19;102033.16;5044715;28;20462;-66
2021/06/10 08:50:33;;;;;;;11.05;7.35;;;;;;;34.41;15.70;102033.78;5052414;28;20025;-67
2021/06/10 08:53:00;;;;;;;9.90;7.40;;;;;;;34.90;14.96;102033.00;5038532;28;20043;-67
2021/06/10 08:55:28;;;;;;;8.45;6.90;;;;;;;35.03;13.59;102032.28;5053167;28;20036;-66
2021/06/10 08:57:54;;;;;;;4.88;4.13;;;;;;;34.89;13.75;102034.03;5035594;28;20134;-68
2021/06/10 09:00:21;;;;;;;3.72;3.08;;;;;;;35.32;12.66;102035.00;5055019;28;20040;-64
2021/06/10 09:02:51;;;;;;;7.25;4.90;;;;;;;33.72;14.10;102034.19;5038428;28;20115;-66
2021/06/10 09:05:19;;;;;;;7.72;5.25;;;;;;;32.58;15.04;102042.34;5053359;28;20484;-66
2021/06/10 09:07:51;;;;;;;6.80;5.78;;;;;;;32.78;15.35;102047.28;5053194;28;20086;-66
2021/06/10 09:10:21;;;;;;;5.75;4.07;;;;;;;32.99;15.01;102055.59;5044008;28;20028;-67
2021/06/10 09:12:57;;;;;;;5.97;5.05;;;;;;;33.45;14.06;102050.06;5035969;28;20114;-66
2021/06/10 09:15:25;;;;;;;4.95;4.38;;;;;;;32.32;15.40;102061.63;5050865;28;20515;-64
2021/06/10 09:17:51;;;;;;;8.25;5.40;;;;;;;32.78;16.17;102050.81;5039144;28;20043;-67
2021/06/10 09:20:23;;;;;;;9.40;6.72;;;;;;;32.12;17.42;102053.13;5037762;28;20016;-67
2021/06/10 09:22:52;;;;;;;9.25;6.35;;;;;;;31.44;18.46;102048.25;5036605;28;20505;-65
2021/06/10 09:25:24;;;;;;;8.43;6.47;;;;;;;31.31;18.51;102049.59;5051949;28;20167;-65
2021/06/10 09:27:53;;;;;;;7.78;5.30;;;;;;;30.74;18.55;102052.31;5038166;28;20040;-65
2021/06/10 09:30:41;;;;;;;7.15;5.43;;;;;;;31.87;17.71;102038.81;5044102;28;20082;-66
2021/06/10 09:33:11;;;;;;;10.45;7.93;;;;;;;31.04;18.47;102048.13;5052799;28;20036;-67
2021/06/10 09:35:40;;;;;;;9.35;5.68;;;;;;;30.69;18.75;102049.25;5052493;28;20064;-66
2021/06/10 09:38:21;;;;;;;10.02;6.80;;;;;;;30.02;20.36;102046.50;5053460;28;20099;-66
2021/06/10 09:40:48;;;;;;;;;;;;;;;30.07;19.96;102045.03;5053419;28;20028;-65
2021/06/10 09:43:14;;;;;;;9.25;7.35;;;;;;;29.22;21.39;102049.44;5052406;28;20019;-66
2021/06/10 09:45:46;;;;;;;14.90;8.23;;;;;;;28.08;21.41;102044.53;5051619;28;20036;-68
2021/06/10 09:48:11;;;;;;;10.82;6.93;;;;;;;27.82;23.45;102053.28;5038913;28;20037;-66
2021/06/10 09:50:42;;;;;;;8.00;6.18;;;;;;;27.72;22.88;102056.00;5052399;28;20085;-65
2021/06/10 09:53:13;;;;;;;7.50;6.03;;;;;;;27.31;23.44;102041.09;5053528;28;20409;-65
2021/06/10 09:56:01;;;;;;;8.35;5.07;;;;;;;26.82;22.42;102048.31;5052509;28;20064;-65
2021/06/10 09:58:39;;;;;;;7.75;3.67;;;;;;;27.00;21.55;102048.44;5053732;28;20052;-65
2021/06/10 10:01:17;;;;;;;3.42;2.05;;;;;;;27.81;20.11;102048.91;5055996;28;20036;-66
2021/06/10 10:03:47;;;;;;;3.10;2.13;;;;;;;27.86;20.13;102052.00;5044755;28;20119;-66
2021/06/10 10:06:17;;;;;;;2.63;2.17;;;;;;;27.70;21.05;102054.47;5034854;28;20477;-66
2021/06/10 10:08:44;;;;;;;2.75;1.73;;;;;;;27.72;18.72;102049.78;5037632;28;20043;-66
2021/06/10 10:11:11;;;;;;;2.83;1.15;;;;;;;27.41;17.93;102043.78;5051819;28;20273;-69
2021/06/10 10:13:39;;;;;;;1.63;0.90;;;;;;;27.70;18.36;102047.25;5037803;28;20032;-66
2021/06/10 10:16:08;;;;;;;6.47;1.25;;;;;;;27.64;17.51;102053.19;5050410;28;20028;-66
2021/06/10 10:18:34;;;;;;;2.25;1.50;;;;;;;27.43;18.37;102047.13;5051082;28;20032;-66
2021/06/10 10:21:01;;;;;;;2.50;1.20;;;;;;;26.83;19.59;102053.53;5053013;28;20055;-65
2021/06/10 10:23:26;;;;;;;2.70;1.77;;;;;;;26.57;19.97;102061.25;5052467;28;20572;-66
2021/06/10 10:25:55;;;;;;;1.63;0.63;;;;;;;27.00;20.64;102051.97;5042890;28;20124;-66
2021/06/10 10:28:22;;;;;;;1.98;0.75;;;;;;;27.19;19.31;102053.84;5050715;28;20440;-65
2021/06/10 10:30:47;;;;;;;3.47;0.88;;;;;;;27.02;18.63;102057.19;5018093;28;20021;-65
2021/06/10 10:33:22;;;;;;;1.85;0.80;;;;;;;27.25;19.27;102052.41;5034477;28;20099;-66
2021/06/10 10:36:02;;;;;;;1.95;0.80;;;;;;;27.17;18.51;102045.09;5050415;28;20032;-66
2021/06/10 10:38:35;;;;;;;1.27;0.60;;;;;;;26.70;20.58;102053.81;5031376;28;20444;-65
2021/06/10 10:41:11;;;;;;;2.00;0.90;;;;;;;26.74;19.60;102053.50;5049876;28;20042;-65
2021/06/10 10:43:38;;;;;;;4.45;1.08;;;;;;;27.33;20.71;102039.13;5049631;28;20033;-66
2021/06/10 10:46:07;;;;;;;3.45;0.80;;;;;;;26.89;20.99;102053.00;5049777;28;20043;-65
2021/06/10 10:48:36;;;;;;;1.90;1.20;;;;;;;26.80;19.33;102044.91;5047834;28;20520;-66
2021/06/10 10:51:23;;;;;;;1.95;1.15;;;;;;;27.36;19.60;102043.34;5048236;28;20029;-66
2021/06/10 10:53:55;;;;;;;2.47;1.50;;;;;;;27.40;20.01;102048.28;5048674;28;20119;-66
2021/06/10 10:56:34;;;;;;;4.32;2.72;;;;;;;27.07;21.29;102046.88;5049512;28;20082;-67
2021/06/10 10:59:13;;;;;;;13.90;3.75;;;;;;;26.77;23.66;102054.09;5033757;28;20043;-66
2021/06/10 11:01:40;;;;;;;6.18;5.57;;;;;;;26.72;24.43;102045.63;5047970;28;20481;-65
2021/06/10 11:04:47;;;;;;;6.22;4.80;;;;;;;26.89;24.75;102046.75;5039137;28;20052;-65
2021/06/10 11:07:39;;;;;;;6.20;3.92;;;;;;;27.09;23.84;102045.78;5050141;28;20497;-66
2021/06/10 11:10:07;;;;;;;8.18;5.63;;;;;;;26.74;25.25;102038.31;5051529;28;20103;-65
2021/06/10 11:12:44;;;;;;;7.63;6.07;;;;;;;27.56;24.15;102044.13;5033626;28;20111;-65
2021/06/10 11:15:15;;;;;;;6.80;4.40;;;;;;;27.29;25.27;102043.06;5033945;28;20422;-68
2021/06/10 11:17:46;;;;;;;10.88;6.13;;;;;;;27.32;24.89;102037.44;5048967;28;20476;-66
2021/06/10 11:20:15;;;;;;;5.57;5.07;;;;;;;28.16;22.58;102041.97;5037106;28;20040;-65
2021/06/10 11:22:53;;;;;;;3.85;2.63;;;;;;;28.78;22.58;102046.69;5031894;28;20282;-66